KCMI/CMI METAR and TAF weather

Enter ICAO airport designator
Station Type Date Time Source
KCMI METAR 2021/07/30 21:53 UTC NOAA

KCMI 302153Z 04006KT 10SM CLR 26/16 A3011 RMK AO2 SLP190 T02560156


Station Type Date Time Source
KCMI Decoded METAR 2021/07/30 21:53 UTC NOAA

UNIV OF ILLINOIS-WILLARD, IL, United States (KCMI) 40-02N 088-16W 228M
Jul 30, 2021 - 05:53 PM EDT / 2021.07.30 2153 UTC
Wind: from the NE (040 degrees) at 7 MPH (6 KT):0
Visibility: 10 mile(s):0
Sky conditions: clear
Temperature: 78.1 F (25.6 C)
Dew Point: 60.1 F (15.6 C)
Relative Humidity: 53%
Pressure (altimeter): 30.11 in. Hg (1019 hPa)
ob: KCMI 302153Z 04006KT 10SM CLR 26/16 A3011 RMK AO2 SLP190 T02560156
cycle: 22

Station Type Date Time Source
KCMI TAF 2021/07/30 18:39 UTC NOAA

TAF KCMI 301737Z 3018/3118 06010KT P6SM FEW045 SCT250
FM301900 06010KT P6SM SCT050 BKN200
FM302300 04008KT P6SM FEW045 BKN250
FM310100 04006KT P6SM BKN250
FM311300 VRB04KT P6SM VCSH BKN070
FM311500 VRB06KT P6SM -SHRA VCTS BKN050CB

Example: see airport list